Thunder radar more information blitzortung!


Radar de pluja more information rain snow radar


Visita la nostra xarxa de llocs de meteo:

Template documentation
and downloads

And another site



Wind From: 11-12-2017 11:00 Until: 14:59 warning for: Wind Level: Yellow info button

Pagina Historial Weather Underground text

Diari Resum Desembre 7, 2017 Unitats:  Mètric    Imperial   Tant
« Previous Dia
SegĂźent Dia »
Diari Setmana Mensual Anual Personalitzada
  Maxima: Minima: Media:
Temperatura: 11.9 °C 0.9 °C 7.4 °C
Punt de rosada: 3.7 °C -3.8 °C 0.3 °C
Humitat: 77 % 55 % 61 %
Wind Speed: 7.4 km/h 0.0 km/h 2.6 km/h
RĂ fegues de vent: 7.4 km/h - -
Vent:- - SE
Pression baro: 1032.1 hPa 1023.9 hPa -
Precipitacions: 0.0 mm    
Historical Graphs
 
 
Dades de taula per Desembre 7, 2017
Temps Temperatura Punt de rosada Pression baro Vent Wind Speed RĂ fegues de vent Humitat Rainfall Rate (Hourly)
00:02 3.0 °C -1.7 °C 1032.1 hPa NNE 3.7 km/h 3.7 km/h 71 % 0.0 mm
00:05 1.3 °C -2.8 °C 1030.0 hPa WNW 1.6 km/h 3.2 km/h 74 % 0.0 mm
00:07 3.0 °C -1.7 °C 1032.1 hPa NNE 3.7 km/h 3.7 km/h 71 % 0.0 mm
00:15 1.3 °C -2.7 °C 1030.0 hPa Calm   3.2 km/h 75 % 0.0 mm
00:25 1.3 °C -2.7 °C 1030.7 hPa WSW 3.2 km/h 3.2 km/h 75 % 0.0 mm
00:35 1.3 °C -2.7 °C 1030.0 hPa Calm   1.6 km/h 75 % 0.0 mm
00:45 1.2 °C -2.7 °C 1030.0 hPa Calm   1.6 km/h 75 % 0.0 mm
00:55 1.2 °C -2.7 °C 1030.0 hPa Calm   1.6 km/h 75 % 0.0 mm
01:05 1.3 °C -2.4 °C 1030.0 hPa Calm     76 % 0.0 mm
01:15 1.3 °C -2.4 °C 1030.0 hPa Calm     76 % 0.0 mm
01:25 1.2 °C -2.6 °C 1030.0 hPa Calm     76 % 0.0 mm
01:35 1.1 °C -2.7 °C 1030.0 hPa Calm   1.6 km/h 76 % 0.0 mm
01:45 1.0 °C -2.8 °C 1030.0 hPa Calm     76 % 0.0 mm
01:55 1.0 °C -2.8 °C 1030.0 hPa NNW 1.6 km/h 3.2 km/h 76 % 0.0 mm
02:05 1.0 °C -2.8 °C 1030.0 hPa North 1.6 km/h 1.6 km/h 76 % 0.0 mm
02:15 1.0 °C -2.8 °C 1030.0 hPa Calm     76 % 0.0 mm
02:25 0.9 °C -2.8 °C 1030.0 hPa Calm     76 % 0.0 mm
02:35 1.0 °C -2.8 °C 1030.0 hPa Calm     76 % 0.0 mm
02:45 1.3 °C -2.3 °C 1030.0 hPa NNE 1.6 km/h 3.2 km/h 77 % 0.0 mm
02:55 1.9 °C -1.7 °C 1030.0 hPa Calm   1.6 km/h 77 % 0.0 mm
03:05 2.4 °C -1.2 °C 1030.0 hPa ENE 1.6 km/h 1.6 km/h 77 % 0.0 mm
03:15 2.3 °C -1.5 °C 1030.0 hPa ENE 3.2 km/h 3.2 km/h 76 % 0.0 mm
03:25 2.8 °C -1.0 °C 1030.7 hPa East 1.6 km/h 3.2 km/h 76 % 0.0 mm
03:35 2.9 °C -1.1 °C 1030.7 hPa East 3.2 km/h 3.2 km/h 75 % 0.0 mm
03:45 2.7 °C -1.5 °C 1030.7 hPa Calm   3.2 km/h 74 % 0.0 mm
03:55 3.1 °C -1.1 °C 1030.7 hPa ESE 1.6 km/h 3.2 km/h 74 % 0.0 mm
04:05 3.7 °C -0.7 °C 1030.7 hPa Calm   3.2 km/h 73 % 0.0 mm
04:15 4.1 °C -0.5 °C 1030.7 hPa ESE 3.2 km/h 3.2 km/h 72 % 0.0 mm
04:25 4.3 °C -0.3 °C 1030.7 hPa SSW 1.6 km/h 3.2 km/h 72 % 0.0 mm
04:35 4.4 °C -0.6 °C 1030.7 hPa SSW 3.2 km/h 3.2 km/h 70 % 0.0 mm
10:44 4.9 °C -0.3 °C 1030.7 hPa SW 2.6 km/h 2.6 km/h 69 % 0.0 mm
10:45 4.9 °C -0.3 °C 1030.7 hPa SW 2.6 km/h 2.6 km/h 69 % 0.0 mm
10:50 4.7 °C -0.5 °C 1030.7 hPa WSW 1.9 km/h 1.9 km/h 69 % 0.0 mm
10:55 4.8 °C -0.4 °C 1030.7 hPa WSW 1.9 km/h   69 % 0.0 mm
11:00 4.8 °C -0.4 °C 1032.1 hPa Calm     69 % 0.0 mm
11:05 5.0 °C -0.2 °C 1032.1 hPa ENE 2.3 km/h 2.3 km/h 69 % 0.0 mm
11:10 5.3 °C 0.1 °C 1032.1 hPa ESE 3.7 km/h 3.7 km/h 69 % 0.0 mm
11:15 5.8 °C 0.6 °C 1030.7 hPa NNE 1.9 km/h   69 % 0.0 mm
11:20 6.4 °C 0.9 °C 1030.7 hPa East 3.2 km/h 3.2 km/h 68 % 0.0 mm
11:25 6.8 °C 1.3 °C 1030.7 hPa East 3.9 km/h 3.9 km/h 68 % 0.0 mm
11:30 6.5 °C 0.6 °C 1030.7 hPa ENE 5.6 km/h 5.6 km/h 66 % 0.0 mm
11:35 6.9 °C 1.2 °C 1030.7 hPa ENE 3.9 km/h 3.9 km/h 67 % 0.0 mm
11:40 7.0 °C 1.1 °C 1030.7 hPa East 5.0 km/h 5.0 km/h 66 % 0.0 mm
11:45 7.3 °C 1.4 °C 1030.0 hPa East 3.7 km/h 3.7 km/h 66 % 0.0 mm
11:50 7.8 °C 1.8 °C 1030.0 hPa Calm   3.2 km/h 66 % 0.0 mm
11:55 8.0 °C 1.8 °C 1030.0 hPa NNE 3.9 km/h 3.9 km/h 65 % 0.0 mm
12:00 8.3 °C 1.9 °C 1030.7 hPa NNE 1.9 km/h   64 % 0.0 mm
12:05 8.5 °C 2.1 °C 1030.7 hPa NE 3.2 km/h 3.2 km/h 64 % 0.0 mm
12:10 8.7 °C 2.1 °C 1030.7 hPa ENE 3.7 km/h 3.7 km/h 63 % 0.0 mm
12:15 8.7 °C 2.1 °C 1030.0 hPa NNE 3.7 km/h 3.7 km/h 63 % 0.0 mm
12:20 9.0 °C 2.3 °C 1030.0 hPa NNE 3.7 km/h 3.7 km/h 63 % 0.0 mm
12:25 9.0 °C 2.3 °C 1030.0 hPa NNE 3.7 km/h 3.7 km/h 63 % 0.0 mm
12:30 9.3 °C 2.4 °C 1030.0 hPa ENE 3.7 km/h 3.7 km/h 62 % 0.0 mm
12:35 9.4 °C 2.5 °C 1030.0 hPa NE 4.2 km/h 4.2 km/h 62 % 0.0 mm
12:40 9.4 °C 2.3 °C 1030.0 hPa NNW 3.7 km/h 3.7 km/h 61 % 0.0 mm
12:45 9.7 °C 2.6 °C 1030.0 hPa ENE 4.7 km/h 4.7 km/h 61 % 0.0 mm
12:50 9.7 °C 2.6 °C 1030.0 hPa NE 7.4 km/h 7.4 km/h 61 % 0.0 mm
12:55 9.8 °C 2.6 °C 1030.0 hPa NNE 5.6 km/h 5.6 km/h 61 % 0.0 mm
13:00 10.0 °C 2.6 °C 1030.0 hPa NE 5.6 km/h 5.6 km/h 60 % 0.0 mm
13:05 10.3 °C 2.9 °C 1030.0 hPa NE 5.0 km/h 5.0 km/h 60 % 0.0 mm
13:10 10.3 °C 2.9 °C 1030.0 hPa NNE 7.4 km/h 7.4 km/h 60 % 0.0 mm
13:20 10.3 °C 2.6 °C 1029.0 hPa NNE 7.4 km/h 7.4 km/h 59 % 0.0 mm
13:25 10.3 °C 2.6 °C 1029.0 hPa ENE 6.1 km/h 6.1 km/h 59 % 0.0 mm
13:30 10.3 °C 2.4 °C 1029.0 hPa NNE 6.4 km/h 6.4 km/h 58 % 0.0 mm
13:35 10.4 °C 2.5 °C 1029.0 hPa ENE 7.4 km/h 7.4 km/h 58 % 0.0 mm
13:40 10.7 °C 2.8 °C 1029.0 hPa ENE 3.7 km/h 3.7 km/h 58 % 0.0 mm
13:45 11.0 °C 3.1 °C 1029.0 hPa ENE 3.7 km/h 3.7 km/h 58 % 0.0 mm
13:50 11.2 °C 3.2 °C 1029.0 hPa NNE 5.6 km/h 5.6 km/h 58 % 0.0 mm
13:55 11.3 °C 3.3 °C 1029.0 hPa ENE 3.7 km/h 3.7 km/h 58 % 0.0 mm
14:05 11.4 °C 3.4 °C 1028.0 hPa NNE 3.7 km/h 3.7 km/h 58 % 0.0 mm
14:10 11.4 °C 3.4 °C 1028.0 hPa NNE 3.7 km/h 3.7 km/h 58 % 0.0 mm
14:15 11.5 °C 3.5 °C 1028.0 hPa NNE 5.6 km/h 5.6 km/h 58 % 0.0 mm
14:20 11.5 °C 3.5 °C 1028.0 hPa NNE 6.4 km/h 6.4 km/h 58 % 0.0 mm
14:25 11.5 °C 3.5 °C 1028.0 hPa NE 6.4 km/h 6.4 km/h 58 % 0.0 mm
14:30 11.4 °C 3.2 °C 1028.0 hPa NNE 3.9 km/h 3.9 km/h 57 % 0.0 mm
14:35 11.4 °C 3.4 °C 1028.0 hPa NE 3.2 km/h 4.8 km/h 58 % 0.0 mm
14:40 11.2 °C 3.0 °C 1028.0 hPa NNE 5.6 km/h 5.6 km/h 57 % 0.0 mm
14:45 11.1 °C 2.9 °C 1028.0 hPa NE 3.7 km/h 3.7 km/h 57 % 0.0 mm
15:00 11.3 °C 3.1 °C 1028.0 hPa NE 1.6 km/h 6.4 km/h 57 % 0.0 mm
15:05 11.4 °C 3.2 °C 1028.0 hPa ENE 3.7 km/h 3.7 km/h 57 % 0.0 mm
15:10 11.6 °C 3.4 °C 1028.0 hPa NNE 1.9 km/h 1.9 km/h 57 % 0.0 mm
15:15 11.7 °C 3.4 °C 1028.0 hPa NNE 4.8 km/h 4.8 km/h 57 % 0.0 mm
15:20 11.8 °C 3.6 °C 1028.0 hPa NE 5.6 km/h 5.6 km/h 57 % 0.0 mm
15:25 11.8 °C 3.6 °C 1028.0 hPa NNE 3.7 km/h 3.7 km/h 57 % 0.0 mm
15:30 11.9 °C 3.7 °C 1028.0 hPa NNE 1.6 km/h 3.2 km/h 57 % 0.0 mm
15:40 11.8 °C 3.3 °C 1028.0 hPa NNE 4.7 km/h 4.7 km/h 56 % 0.0 mm
15:45 11.8 °C 3.6 °C 1028.0 hPa NE 1.6 km/h 4.8 km/h 57 % 0.0 mm
15:50 11.8 °C 3.6 °C 1028.0 hPa NW 3.7 km/h 3.7 km/h 57 % 0.0 mm
15:55 11.7 °C 3.2 °C 1028.0 hPa NNE 1.9 km/h 1.9 km/h 56 % 0.0 mm
16:00 11.7 °C 3.4 °C 1028.0 hPa NNE 1.9 km/h 1.9 km/h 57 % 0.0 mm
16:05 11.6 °C 3.4 °C 1028.0 hPa North 1.9 km/h   57 % 0.0 mm
16:10 11.6 °C 3.1 °C 1028.0 hPa Calm     56 % 0.0 mm
16:20 11.5 °C 3.3 °C 1028.0 hPa West 1.9 km/h   57 % 0.0 mm
16:25 11.3 °C 2.8 °C 1028.0 hPa NW 3.7 km/h 3.7 km/h 56 % 0.0 mm
16:30 11.2 °C 2.7 °C 1028.0 hPa NNE 3.7 km/h 3.7 km/h 56 % 0.0 mm
16:35 11.1 °C 2.7 °C 1028.0 hPa North 1.9 km/h 1.9 km/h 56 % 0.0 mm
16:40 11.1 °C 2.9 °C 1028.0 hPa Calm     57 % 0.0 mm
16:45 11.1 °C 2.9 °C 1028.0 hPa NNW 1.9 km/h   57 % 0.0 mm
16:50 11.0 °C 2.6 °C 1028.0 hPa NNE 3.7 km/h   56 % 0.0 mm
16:55 10.8 °C 2.4 °C 1028.0 hPa North 1.4 km/h   56 % 0.0 mm
17:00 10.7 °C 2.3 °C 1028.0 hPa Calm     56 % 0.0 mm
17:05 10.6 °C 2.2 °C 1028.0 hPa NW 1.9 km/h   56 % 0.0 mm
17:10 10.6 °C 2.2 °C 1028.0 hPa NNE 1.9 km/h 1.9 km/h 56 % 0.0 mm
17:15 10.5 °C 2.1 °C 1028.0 hPa ENE 1.9 km/h   56 % 0.0 mm
17:20 10.4 °C 2.0 °C 1028.0 hPa North 1.9 km/h   56 % 0.0 mm
17:25 10.3 °C 1.9 °C 1028.0 hPa NW 3.7 km/h 3.7 km/h 56 % 0.0 mm
17:30 10.3 °C 1.9 °C 1028.0 hPa Calm     56 % 0.0 mm
17:40 9.9 °C 1.5 °C 1028.0 hPa West 3.7 km/h 3.7 km/h 56 % 0.0 mm
17:45 9.7 °C 1.6 °C 1028.0 hPa WSW 3.7 km/h 3.7 km/h 57 % 0.0 mm
17:55 9.7 °C 1.6 °C 1028.0 hPa Calm     57 % 0.0 mm
18:00 9.7 °C 1.6 °C 1028.0 hPa West 3.7 km/h 3.7 km/h 57 % 0.0 mm
18:05 9.8 °C 1.7 °C 1028.0 hPa West 1.9 km/h   57 % 0.0 mm
18:10 9.8 °C 1.4 °C 1028.0 hPa WSW 3.7 km/h   56 % 0.0 mm
18:15 9.7 °C 1.3 °C 1028.0 hPa Calm     56 % 0.0 mm
18:20 9.6 °C 1.2 °C 1028.0 hPa SW 2.6 km/h 2.6 km/h 56 % 0.0 mm
18:25 9.4 °C 1.1 °C 1028.0 hPa SW 3.7 km/h 3.7 km/h 56 % 0.0 mm
18:30 9.2 °C 0.9 °C 1028.0 hPa West 3.7 km/h 3.7 km/h 56 % 0.0 mm
18:35 9.3 °C 0.9 °C 1028.0 hPa West 3.7 km/h 3.7 km/h 56 % 0.0 mm
18:40 9.4 °C 1.1 °C 1028.0 hPa West 3.7 km/h 3.7 km/h 56 % 0.0 mm
18:50 9.4 °C 1.1 °C 1028.0 hPa SW 2.3 km/h 2.3 km/h 56 % 0.0 mm
18:55 4.2 °C -3.3 °C 1026.0 hPa Calm     58 % 0.0 mm
19:00 9.1 °C 0.5 °C 1027.0 hPa Calm     55 % 0.0 mm
19:05 8.9 °C 0.3 °C 1027.0 hPa SW 1.4 km/h   55 % 0.0 mm
19:25 8.5 °C -0.1 °C 1028.0 hPa Calm     55 % 0.0 mm
19:30 8.5 °C -0.1 °C 1027.0 hPa Calm     55 % 0.0 mm
19:35 8.5 °C -0.1 °C 1027.0 hPa SW 3.7 km/h 3.7 km/h 55 % 0.0 mm
19:40 8.4 °C -0.1 °C 1027.0 hPa WSW 3.7 km/h 3.7 km/h 55 % 0.0 mm
19:45 8.4 °C -0.1 °C 1027.0 hPa WSW 3.7 km/h 3.7 km/h 55 % 0.0 mm
19:50 8.4 °C -0.1 °C 1027.0 hPa WSW 3.7 km/h 3.7 km/h 55 % 0.0 mm
19:55 3.4 °C -3.7 °C 1024.9 hPa SSW 3.2 km/h 3.2 km/h 60 % 0.0 mm
20:00 8.2 °C -0.3 °C 1027.0 hPa WSW 3.7 km/h 3.7 km/h 55 % 0.0 mm
20:05 8.2 °C -0.3 °C 1027.0 hPa WSW 1.9 km/h 1.9 km/h 55 % 0.0 mm
20:15 3.3 °C -3.7 °C 1024.9 hPa West 1.6 km/h 3.2 km/h 60 % 0.0 mm
20:20 8.1 °C -0.4 °C 1027.0 hPa West 3.7 km/h 3.7 km/h 55 % 0.0 mm
20:25 7.9 °C -0.6 °C 1027.0 hPa SW 3.7 km/h 3.7 km/h 55 % 0.0 mm
20:30 7.6 °C -0.9 °C 1027.0 hPa WSW 3.7 km/h 3.7 km/h 55 % 0.0 mm
20:35 7.5 °C -0.9 °C 1027.0 hPa Calm     55 % 0.0 mm
20:50 7.4 °C -1.1 °C 1028.0 hPa West 2.6 km/h 2.6 km/h 55 % 0.0 mm
20:55 7.4 °C -1.1 °C 1028.0 hPa WSW 3.7 km/h 3.7 km/h 55 % 0.0 mm
21:00 7.3 °C -1.2 °C 1027.0 hPa West 1.9 km/h 1.9 km/h 55 % 0.0 mm
21:05 3.4 °C -3.4 °C 1023.9 hPa Calm     61 % 0.0 mm
21:10 7.0 °C -1.4 °C 1027.0 hPa Calm     55 % 0.0 mm
21:15 7.0 °C -1.4 °C 1027.0 hPa WNW 2.3 km/h   55 % 0.0 mm
21:25 3.1 °C -3.7 °C 1023.9 hPa WSW 1.6 km/h 3.2 km/h 61 % 0.0 mm
21:30 6.8 °C -1.6 °C 1027.0 hPa SW 3.7 km/h 3.7 km/h 55 % 0.0 mm
21:35 6.7 °C -1.7 °C 1027.0 hPa WSW 3.7 km/h 3.7 km/h 55 % 0.0 mm
21:40 6.7 °C -1.7 °C 1027.0 hPa WSW 3.7 km/h 3.7 km/h 55 % 0.0 mm
21:45 6.5 °C -1.9 °C 1027.0 hPa WSW 3.5 km/h 3.5 km/h 55 % 0.0 mm
21:50 6.4 °C -2.0 °C 1027.0 hPa Calm     55 % 0.0 mm
21:55 6.4 °C -2.0 °C 1027.0 hPa Calm     55 % 0.0 mm
22:00 6.2 °C -2.2 °C 1027.0 hPa SW 2.3 km/h 2.3 km/h 55 % 0.0 mm
22:05 3.7 °C -3.6 °C 1023.9 hPa NNE 1.6 km/h 3.2 km/h 59 % 0.0 mm
22:10 6.0 °C -2.1 °C 1027.0 hPa Calm     56 % 0.0 mm
22:15 3.7 °C -3.8 °C 1023.9 hPa NNE 1.6 km/h 3.2 km/h 58 % 0.0 mm
22:20 5.9 °C -2.2 °C 1027.0 hPa SW 1.9 km/h 1.9 km/h 56 % 0.0 mm
22:25 5.8 °C -2.3 °C 1027.0 hPa Calm     56 % 0.0 mm
22:30 5.8 °C -2.3 °C 1027.0 hPa SW 1.9 km/h   56 % 0.0 mm
22:35 5.7 °C -2.4 °C 1027.0 hPa SW 3.7 km/h 3.7 km/h 56 % 0.0 mm
22:40 5.6 °C -2.3 °C 1027.0 hPa Calm     57 % 0.0 mm
22:50 5.8 °C -2.3 °C 1026.0 hPa West 3.7 km/h 3.7 km/h 56 % 0.0 mm
22:55 5.6 °C -2.5 °C 1026.0 hPa West 1.4 km/h   56 % 0.0 mm
23:05 5.6 °C -2.5 °C 1026.0 hPa West 2.6 km/h 2.6 km/h 56 % 0.0 mm
23:10 5.8 °C -2.3 °C 1026.0 hPa West 2.3 km/h 2.3 km/h 56 % 0.0 mm
23:15 5.6 °C -2.5 °C 1026.0 hPa West 3.7 km/h 3.7 km/h 56 % 0.0 mm
23:25 5.7 °C -2.4 °C 1026.0 hPa NW 1.9 km/h 1.9 km/h 56 % 0.0 mm
23:30 5.7 °C -2.4 °C 1026.0 hPa Calm     56 % 0.0 mm
23:35 5.6 °C -2.5 °C 1026.0 hPa NNE 5.6 km/h 5.6 km/h 56 % 0.0 mm
23:40 5.4 °C -2.7 °C 1026.0 hPa NNW 2.3 km/h   56 % 0.0 mm
23:45 5.5 °C -2.6 °C 1026.0 hPa WNW 1.9 km/h 1.9 km/h 56 % 0.0 mm
23:55 5.2 °C -2.9 °C 1026.0 hPa Calm     56 % 0.0 mm
Meteo Sesrovires
Elogis d' Weather Underground - 3.5 mb

Guio original per  Jim McMurry - jmcmurry@mwt.net Adaptat per a la plantilla per  Wim van der Kuil - Leuven-Template.eu

Trobareu la nostra informacio del temps tambe a:

Weather Underground

AWEKAS